Forside
METAR-TAF:

METAR-TAF

Lufthavne :

Cairns, Australien

Breddekreds: 16-53S, længdekreds: 145-45E, højde: 3 m

Aktuelle vejr

Denne rapport blev lavet for 25 minutter siden, kl. 23:30 UTC
Vind 13 kt fra sydøst
Temperatur 27°C
Fugtighed 54%
Tryk 1017 hPa
Sigt 10 km eller mere
Nogle få skyer i en højde af 3300 ft
Brudte skyer i en højde af 25000 ft

METAR: YBCS 202330Z 14013KT 9999 FEW033 BKN250 27/17 Q1017 NOSIG

Tid: 09:55 (23:55 UTC)

Vejrudsigter

Denne rapport blev lavet for 49 minutter siden, kl. 23:06 UTC
Foreløbig gælder fra 21 på 00 UTC til 21 på 24 UTC
Vind 18 kt fra østsydøst
Sigt 10 km eller mere
Spredte skyer i en højde af 3000 ft
Spredte skyer i en højde af 5000 ft
Fra 21 på 0800 UTC
Vind 12 kt fra sydøst
Sigt 10 km eller mere
Spredte skyer i en højde af 2500 ft
Brudte skyer i en højde af 4000 ft

TAF: YBCS 202306Z 2100/2124 12018KT 9999 SCT030 SCT050 FM210800 14012KT 9999 SCT025 BKN040

Vejrobservationer og prognoser fra mere end 4000 lufthavne (METAR og TAF).

De gule og røde prikker repræsenterer de meteorologiske stationer.

Flyt musen over at se navnet på stationen.

Så klik over at se vejr observationer og prognoser.

At skifte det kort: Klik på de grønne knapper med et sort kors for at zoome ind; på den grønne knap med en bindestreg for at zoome ud; eller på de grønne pile for tilstødende kort.


METAR-TAF: